Share

Hamilton Island, Queensland

Hamilton Island (YBHM) Elev 16 ft | 20.36 °S, 148.95 °E | Change Station

Current weather conditions updated 26 minutes ago

Clear
Clear
75 °F
Feels Like 75 °F
N
2
Wind Variable Wind from North
Sunrise 6:16 AM
Sunset 5:50 PM
Moon Waning Gibbous

Tomorrow is forecast to be Cooler than today.

Pressure 30.04 in
Visibility 6.2 miles
Clouds
Dew Point 68 °F
Humidity 78%
Rainfall 0.00 in
Snow Depth Not available.
UV Not available.
Pollen Not available.
Air Quality Not available.
Flu Activity Not available.
METAR YBHM 181300Z AUTO 01002KT 9999 // NCD 24/20 Q1017

More Conditions Fewer Conditions

Pressure 30.04 in
Visibility 6.2 miles
Clouds
Dew Point 68 °F
Humidity 78%
Rainfall 0.00 in
Snow Depth Not available.
UV Not available.
Pollen Not available.
Air Quality Not available.
Flu Activity Not available.
METAR YBHM 181300Z AUTO 01002KT 9999 // NCD 24/20 Q1017

More Conditions Fewer Conditions

10-Day Forecast

Almanac

Astronomy

Apr. 18, 2014 Rise Set
Actual Time 6:16 AM EST 5:50 PM EST
Civil Twilight 5:53 AM EST 6:13 PM EST
Nautical Twilight 5:27 AM EST 6:39 PM EST
Astronomical Twilight 5:02 AM EST 7:04 PM EST
Moon 8:14 PM EST 8:42 AM EST
Length of Visible Light 12h 19m
Length of Day
11h 34m
Tomorrow will be 1m 4s shorter.
Waning Gibbous, 88% of the Moon is Illuminated
Today
Waning Gibbous
Apr 22
Last Quarter
Apr 29
New
May 6
First Quarter
May 14
Full

Yesterday's Extremes

Country Highs Country Lows

Community

  • What's for Lunch?
    What's for Lunch?
  • SUNRISE THROUGH THE TREES.
    SUNRISE THROUGH THE TREES.
  • Dog Wood Blossoms
    Dog Wood Blossoms
  • Morning Light
    Morning Light
  • New Day
    New Day

WunderPhotos

Upload Photos

1,702,358 photos uploaded!

Nearby

Snow Depth

Not available.

Coastal Water Temperatures

Place Temperature
No Stations Reporting

Earthquake Activity

City Distance Mag. Time & Date
No recent earthquake activity has been reported nearby.
Minimum magnitude displayed is 2.5.

Nearby Weather Stations

Station Location Temp. Dew Point Humidity Wind Precip. Elev Updated Type
Proserpine Mill, Proserpine 71.2 °F 69 °F 93% West  at  0.0 mph 0.00 in / hr 43 ft 11:15 PM EST Normal

Show More Stations Show Fewer Stations

What do you think?

We're not finished. Please let us know what you like, what you don't like, and what you are still missing.